Time;durP1;ratioP1;P1;durP2;ratioP2;P2;SDS_P1;SDS_P2;PMS_P1;PMS_P2;Temp;Humidity;BMP_temperature;BMP_pressure;BME280_temperature;BME280_humidity;BME280_pressure;Samples;Min_cycle;Max_cycle;Signal;HPM_P1;HPM_P2
2022/05/16 00:01:32;;;;;;;0.73;0.20;;;;;;;22.95;59.24;102125.59;5033056;28;20323;-64
2022/05/16 00:03:58;;;;;;;0.35;0.10;;;;;;;22.94;59.11;102123.91;5032749;28;20167;-65
2022/05/16 00:06:23;;;;;;;0.93;0.30;;;;;;;22.95;58.97;102131.09;5032588;28;20021;-65
2022/05/16 00:08:48;;;;;;;1.02;0.20;;;;;;;22.91;60.20;102127.00;5048067;28;20017;-65
2022/05/16 00:11:14;;;;;;;0.55;0.30;;;;;;;22.89;58.94;102126.31;5032695;28;20025;-64
2022/05/16 00:13:39;;;;;;;0.45;0.20;;;;;;;22.91;58.27;102123.38;5032453;28;20116;-65
2022/05/16 00:16:04;;;;;;;0.20;0.10;;;;;;;22.89;58.65;102126.31;5031260;28;20128;-65
2022/05/16 00:18:30;;;;;;;0.52;0.10;;;;;;;22.91;60.08;102129.72;5032366;28;20049;-65
2022/05/16 00:20:55;;;;;;;0.45;0.10;;;;;;;22.90;58.87;102135.38;5032542;28;20112;-65
2022/05/16 00:23:20;;;;;;;0.85;0.10;;;;;;;22.90;59.64;102138.13;5032699;28;20022;-65
2022/05/16 00:25:46;;;;;;;0.05;0.05;;;;;;;22.88;59.06;102137.44;5033700;28;20071;-64
2022/05/16 00:28:11;;;;;;;0.13;0.10;;;;;;;22.89;59.51;102137.28;5039832;28;20053;-65
2022/05/16 00:30:36;;;;;;;0.65;0.13;;;;;;;22.87;58.82;102138.47;5032262;28;20053;-64
2022/05/16 00:33:01;;;;;;;0.40;0.20;;;;;;;22.87;58.80;102144.81;5031641;28;20033;-65
2022/05/16 00:35:27;;;;;;;0.85;0.52;;;;;;;22.86;58.80;102145.84;5032192;28;20021;-64
2022/05/16 00:37:52;;;;;;;0.80;0.15;;;;;;;22.81;58.15;102142.69;5032165;28;20541;-64
2022/05/16 00:40:18;;;;;;;1.00;0.30;;;;;;;22.80;58.18;102141.00;5032146;28;20026;-65
2022/05/16 00:42:44;;;;;;;0.10;0.10;;;;;;;22.81;58.58;102139.97;5033238;28;20029;-65
2022/05/16 00:45:13;;;;;;;0.43;0.05;;;;;;;22.84;59.25;102145.13;5032360;28;20469;-65
2022/05/16 00:47:39;;;;;;;0.35;0.20;;;;;;;22.81;58.32;102153.66;5032045;28;20026;-64
2022/05/16 00:50:05;;;;;;;0.77;0.70;;;;;;;22.84;58.34;102152.50;5030856;28;20035;-65
2022/05/16 00:52:34;;;;;;;0.30;0.17;;;;;;;22.85;58.47;102157.00;5032126;28;20112;-65
2022/05/16 00:55:13;;;;;;;0.25;0.10;;;;;;;22.86;58.68;102159.56;5033735;28;20040;-65
2022/05/16 00:57:42;;;;;;;0.10;0.10;;;;;;;22.85;57.41;102152.34;5031988;28;20029;-64
2022/05/16 01:00:16;;;;;;;0.65;0.65;;;;;;;22.85;58.62;102157.84;5031961;28;20025;-65
2022/05/16 01:05:31;;;;;;;0.20;0.20;;;;;;;22.80;57.84;102152.81;5032175;28;20041;-65
2022/05/16 01:07:59;;;;;;;0.20;0.20;;;;;;;22.82;58.35;102158.16;5033530;28;20108;-64
2022/05/16 01:10:25;;;;;;;0.30;0.20;;;;;;;22.79;58.90;102158.47;5037578;28;20022;-65
2022/05/16 01:12:53;;;;;;;0.35;0.13;;;;;;;22.80;59.20;102162.91;5031918;28;20026;-64
2022/05/16 01:15:31;;;;;;;0.10;0.10;;;;;;;22.80;58.71;102160.19;5031924;28;20096;-65
2022/05/16 01:17:56;;;;;;;0.35;0.20;;;;;;;22.77;58.19;102161.38;5032505;28;20373;-64
2022/05/16 01:20:21;;;;;;;0.50;0.22;;;;;;;22.79;57.57;102166.69;5031800;28;20522;-64
2022/05/16 01:22:51;;;;;;;0.20;0.20;;;;;;;22.79;57.83;102161.22;5033707;28;20407;-65
2022/05/16 01:25:28;;;;;;;0.10;0.10;;;;;;;22.80;58.75;102162.91;5031874;28;20033;-65
2022/05/16 01:27:56;;;;;;;0.10;0.10;;;;;;;22.81;58.83;102167.38;5031674;28;20057;-64
2022/05/16 01:30:29;;;;;;;0.20;0.10;;;;;;;22.78;58.94;102167.72;5031600;28;20033;-65
2022/05/16 01:32:55;;;;;;;0.30;0.08;;;;;;;22.79;58.29;102170.28;5031941;28;20036;-65
2022/05/16 01:35:23;;;;;;;0.10;0.10;;;;;;;22.76;58.25;102170.63;5030346;28;20030;-65
2022/05/16 01:40:33;;;;;;;0.20;0.15;;;;;;;22.76;57.31;102167.03;5031678;28;20044;-65
2022/05/16 01:42:58;;;;;;;0.13;0.00;;;;;;;22.76;58.05;102176.13;5031031;28;20458;-66
2022/05/16 01:45:24;;;;;;;0.32;0.10;;;;;;;22.74;58.06;102177.31;5035265;28;20029;-65
2022/05/16 01:47:49;;;;;;;0.80;0.30;;;;;;;22.75;58.27;102181.78;5033876;28;20041;-65
2022/05/16 01:50:15;;;;;;;0.17;0.10;;;;;;;22.76;57.65;102175.25;5039882;28;20026;-64
2022/05/16 01:52:40;;;;;;;1.25;0.10;;;;;;;22.75;58.35;102176.28;5035205;28;20202;-65
2022/05/16 01:55:06;;;;;;;0.10;0.03;;;;;;;22.73;57.54;102175.59;5035284;28;20025;-65
2022/05/16 01:57:31;;;;;;;0.13;0.10;;;;;;;22.76;56.79;102176.13;5033724;28;20033;-66
2022/05/16 01:59:56;;;;;;;0.65;0.20;;;;;;;22.76;58.83;102178.00;5035003;28;20380;-65
2022/05/16 02:02:21;;;;;;;0.22;0.17;;;;;;;22.77;57.66;102176.97;5035502;28;20033;-65
2022/05/16 02:04:47;;;;;;;0.10;0.10;;;;;;;22.74;57.83;102171.84;5035098;28;20017;-65
2022/05/16 02:07:12;;;;;;;0.30;0.10;;;;;;;22.75;57.34;102168.91;5034987;28;20071;-65
2022/05/16 02:09:37;;;;;;;0.15;0.15;;;;;;;22.76;57.17;102169.78;5034838;28;20393;-64
2022/05/16 02:12:03;;;;;;;0.70;0.15;;;;;;;22.73;58.75;102172.88;5034760;28;20021;-65
2022/05/16 02:14:28;;;;;;;0.40;0.17;;;;;;;22.74;57.33;102169.09;5033470;28;20477;-65
2022/05/16 02:16:53;;;;;;;0.22;0.10;;;;;;;22.73;58.50;102175.59;5035653;28;20480;-65
2022/05/16 02:19:18;;;;;;;0.10;0.10;;;;;;;22.71;57.73;102178.53;5034581;28;20067;-64
2022/05/16 02:24:39;;;;;;;0.10;0.10;;;;;;;22.72;57.53;102173.88;5034619;28;20036;-65
2022/05/16 02:27:06;;;;;;;0.30;0.10;;;;;;;22.72;57.95;102174.75;5034492;28;20068;-65
2022/05/16 02:29:34;;;;;;;0.35;0.10;;;;;;;22.71;58.58;102177.66;5035692;28;20029;-65
2022/05/16 02:32:00;;;;;;;0.47;0.13;;;;;;;22.72;58.85;102184.84;5040870;28;20549;-65
2022/05/16 02:34:25;;;;;;;0.30;0.10;;;;;;;22.71;56.68;102186.75;5034317;28;20104;-64
2022/05/16 02:36:52;;;;;;;0.73;0.20;;;;;;;22.70;57.97;102187.78;5034482;28;20029;-65
2022/05/16 02:39:18;;;;;;;0.10;0.10;;;;;;;22.68;57.67;102195.31;5034228;28;20055;-65
2022/05/16 02:41:44;;;;;;;0.55;0.10;;;;;;;22.68;58.59;102194.44;5035083;28;20029;-65
2022/05/16 02:44:09;;;;;;;0.20;0.20;;;;;;;22.69;59.10;102197.03;5033032;28;20017;-65
2022/05/16 02:46:37;;;;;;;0.65;0.17;;;;;;;22.67;57.12;102204.53;5034116;28;20040;-65
2022/05/16 02:49:03;;;;;;;0.17;0.10;;;;;;;22.66;56.74;102201.94;5034273;28;20032;-65
2022/05/16 02:51:29;;;;;;;0.20;0.20;;;;;;;22.67;58.52;102192.72;5034038;28;20130;-66
2022/05/16 02:53:54;;;;;;;1.30;0.10;;;;;;;22.68;58.04;102197.19;5049347;28;20021;-64
2022/05/16 02:56:20;;;;;;;0.68;0.10;;;;;;;22.69;58.81;102196.16;5033676;28;20104;-65
2022/05/16 02:58:45;;;;;;;0.43;0.10;;;;;;;22.68;58.96;102191.72;5033972;28;20523;-65
2022/05/16 03:01:11;;;;;;;0.47;0.10;;;;;;;22.67;58.59;102132.41;5034047;28;20041;-65
2022/05/16 03:03:39;;;;;;;0.40;0.13;;;;;;;22.70;58.66;102134.81;5033837;28;20052;-64
2022/05/16 03:06:04;;;;;;;0.30;0.20;;;;;;;22.70;60.28;102126.59;5033853;28;20029;-65
2022/05/16 03:08:29;;;;;;;0.40;0.10;;;;;;;22.80;59.09;102236.94;5039928;28;20036;-62
2022/05/16 03:10:54;;;;;;;0.15;0.10;;;;;;;22.77;58.45;102215.34;5034324;28;20032;-65
2022/05/16 03:13:20;;;;;;;0.15;0.10;;;;;;;22.74;59.83;102207.47;5033658;28;20112;-66
2022/05/16 03:15:46;;;;;;;0.75;0.20;;;;;;;22.71;58.26;102205.06;5033628;28;20025;-65
2022/05/16 03:18:11;;;;;;;0.30;0.20;;;;;;;22.71;57.98;102216.91;5033975;28;20025;-65
2022/05/16 03:20:37;;;;;;;0.22;0.20;;;;;;;22.70;59.08;102209.69;5033465;28;20493;-65
2022/05/16 03:23:02;;;;;;;0.32;0.20;;;;;;;22.70;59.51;102197.88;5032273;28;20356;-64
2022/05/16 03:25:28;;;;;;;0.50;0.20;;;;;;;22.67;58.34;102193.56;5035083;28;20072;-65
2022/05/16 03:27:53;;;;;;;0.30;0.10;;;;;;;22.67;58.03;102196.31;5033177;28;20042;-64
2022/05/16 03:30:19;;;;;;;0.30;0.30;;;;;;;22.74;57.83;102205.59;5033355;28;20483;-65
2022/05/16 03:32:44;;;;;;;0.30;0.13;;;;;;;22.76;57.55;102197.19;5033236;28;20029;-66
2022/05/16 03:35:09;;;;;;;1.55;0.20;;;;;;;22.76;57.30;102202.69;5033394;28;20060;-65
2022/05/16 03:37:35;;;;;;;0.20;0.20;;;;;;;22.77;57.48;102199.75;5033358;28;20128;-65
2022/05/16 03:42:44;;;;;;;0.13;0.10;;;;;;;22.76;57.32;102202.69;5033225;28;20212;-65
2022/05/16 03:45:10;;;;;;;0.13;0.10;;;;;;;22.78;57.92;102203.38;5033215;28;20108;-65
2022/05/16 03:47:35;;;;;;;0.30;0.10;;;;;;;22.76;58.31;102202.69;5034343;28;20029;-63
2022/05/16 03:50:00;;;;;;;0.30;0.20;;;;;;;22.76;57.93;102192.56;5035259;28;20416;-65
2022/05/16 03:52:26;;;;;;;0.30;0.15;;;;;;;22.76;58.15;102192.56;5032833;28;20018;-65
2022/05/16 03:54:51;;;;;;;0.40;0.10;;;;;;;22.79;57.43;102196.84;5033575;28;20083;-63
2022/05/16 03:57:16;;;;;;;1.42;0.40;;;;;;;22.79;58.50;102197.72;5034229;28;20079;-65
2022/05/16 03:59:42;;;;;;;0.13;0.13;;;;;;;22.77;58.32;102201.66;5031430;28;20492;-65
2022/05/16 04:02:08;;;;;;;0.80;0.30;;;;;;;22.78;60.95;102195.13;5032816;28;20437;-64
2022/05/16 04:04:33;;;;;;;1.05;0.22;;;;;;;22.87;59.17;102150.31;5031446;28;20035;-66
2022/05/16 04:06:59;;;;;;;0.50;0.20;;;;;;;22.98;59.60;102207.53;5032995;28;20108;-64
2022/05/16 04:09:24;;;;;;;0.50;0.15;;;;;;;23.04;59.79;102206.88;5032639;28;20419;-65
2022/05/16 04:11:49;;;;;;;0.63;0.22;;;;;;;23.06;59.86;102214.94;5032526;28;20037;-65
2022/05/16 04:14:14;;;;;;;0.60;0.20;;;;;;;23.08;58.86;102221.97;5032645;28;20114;-65
2022/05/16 04:16:40;;;;;;;0.22;0.10;;;;;;;23.11;58.97;102212.53;5032660;28;20083;-65
2022/05/16 04:19:09;;;;;;;0.55;0.30;;;;;;;23.09;59.68;102193.50;5032553;28;20044;-65
2022/05/16 04:21:36;;;;;;;0.90;0.20;;;;;;;23.13;59.34;102199.50;5032558;28;20037;-65
2022/05/16 04:24:01;;;;;;;0.00;0.00;;;;;;;23.15;60.17;102202.94;5039790;28;20041;-62
2022/05/16 04:26:27;;;;;;;0.30;0.20;;;;;;;23.17;61.58;102200.88;5033815;28;20380;-64
2022/05/16 04:28:53;;;;;;;0.57;0.20;;;;;;;23.18;60.66;102212.69;5032391;28;20049;-65
2022/05/16 04:31:18;;;;;;;0.28;0.20;;;;;;;23.21;60.87;102206.91;5032301;28;20071;-66
2022/05/16 04:33:44;;;;;;;0.50;0.20;;;;;;;23.24;60.53;102201.06;5032359;28;20099;-65
2022/05/16 04:36:09;;;;;;;0.88;0.20;;;;;;;23.22;60.48;102214.09;5034093;28;20025;-66
2022/05/16 04:38:35;;;;;;;0.10;0.10;;;;;;;23.26;60.79;102207.22;5030814;28;20025;-65
2022/05/16 04:43:45;;;;;;;0.50;0.15;;;;;;;23.26;61.12;102209.97;5032462;28;20049;-65
2022/05/16 04:46:10;;;;;;;0.20;0.20;;;;;;;23.30;61.48;102211.34;5032503;28;20021;-64
2022/05/16 04:48:35;;;;;;;0.50;0.10;;;;;;;23.30;60.89;102212.19;5032152;28;20060;-65
2022/05/16 04:51:01;;;;;;;0.25;0.13;;;;;;;23.30;61.77;102214.09;5031061;28;20052;-64
2022/05/16 04:53:26;;;;;;;0.10;0.00;;;;;;;23.31;61.45;102224.03;5032132;28;20372;-65
2022/05/16 04:55:52;;;;;;;0.32;0.10;;;;;;;23.30;61.97;102216.81;5032078;28;20037;-65
2022/05/16 04:58:17;;;;;;;0.22;0.22;;;;;;;23.32;61.15;102223.00;5032147;28;20542;-64
2022/05/16 05:00:43;;;;;;;0.45;0.10;;;;;;;23.33;62.03;102227.44;5032145;28;20536;-65
2022/05/16 05:03:08;;;;;;;0.68;0.13;;;;;;;23.32;61.34;102226.59;5032194;28;20029;-65
2022/05/16 05:05:35;;;;;;;0.10;0.10;;;;;;;23.33;61.46;102227.44;5032933;28;20534;-64
2022/05/16 05:08:01;;;;;;;0.43;0.25;;;;;;;23.32;61.89;102220.25;5032096;28;20112;-65
2022/05/16 05:16:15;;;;;;;0.47;0.15;;;;;;;23.36;61.21;102210.69;5031889;28;20052;-64
2022/05/16 05:18:41;;;;;;;0.30;0.15;;;;;;;23.38;62.04;102214.97;5032253;28;20052;-64
2022/05/16 05:21:07;;;;;;;0.47;0.10;;;;;;;23.38;61.56;102225.06;5035917;28;20030;-64
2022/05/16 05:23:34;;;;;;;0.15;0.03;;;;;;;23.38;62.31;102222.34;5035581;28;20389;-65
2022/05/16 05:26:00;;;;;;;0.28;0.17;;;;;;;23.38;62.05;102225.06;5035752;28;20029;-65
2022/05/16 05:28:25;;;;;;;0.10;0.10;;;;;;;23.41;62.91;102227.47;5034150;28;20534;-65
2022/05/16 05:30:51;;;;;;;0.20;0.20;;;;;;;23.41;63.18;102222.84;5034428;28;20025;-65
2022/05/16 05:33:16;;;;;;;0.40;0.20;;;;;;;23.42;62.35;102215.47;5035638;28;20030;-65
2022/05/16 05:35:42;;;;;;;0.95;0.28;;;;;;;23.43;62.27;102217.16;5037280;28;20583;-65
2022/05/16 05:38:09;;;;;;;0.10;0.10;;;;;;;23.44;62.79;102215.28;5034275;28;20365;-65
2022/05/16 05:40:34;;;;;;;0.30;0.20;;;;;;;23.44;63.34;102210.66;5035331;28;20026;-65
2022/05/16 05:43:07;;;;;;;0.10;0.10;;;;;;;23.44;62.68;102216.16;5034234;28;20064;-65
2022/05/16 05:45:34;;;;;;;0.80;0.20;;;;;;;23.46;62.93;102208.59;5035173;28;20045;-65
2022/05/16 05:48:01;;;;;;;0.35;0.03;;;;;;;23.45;62.61;102209.63;5040758;28;20478;-64
2022/05/16 05:50:27;;;;;;;1.55;0.40;;;;;;;23.46;63.41;102194.88;5037875;28;20022;-65
2022/05/16 05:52:52;;;;;;;0.05;0.05;;;;;;;23.50;62.81;102220.06;5035460;28;20037;-65
2022/05/16 05:55:17;;;;;;;0.22;0.10;;;;;;;23.51;62.85;102225.38;5035169;28;20032;-65
2022/05/16 05:57:43;;;;;;;0.10;0.10;;;;;;;23.48;63.28;102220.25;5035437;28;20029;-65
2022/05/16 06:00:09;;;;;;;0.17;0.10;;;;;;;23.51;63.04;102219.91;5034981;28;20425;-64
2022/05/16 06:02:37;;;;;;;0.20;0.10;;;;;;;23.51;64.10;102219.91;5034920;28;20500;-64
2022/05/16 06:05:04;;;;;;;0.45;0.10;;;;;;;23.52;63.24;102224.38;5035100;28;20485;-64
2022/05/16 06:07:29;;;;;;;0.10;0.05;;;;;;;23.51;63.93;102219.91;5035480;28;20075;-65
2022/05/16 06:09:54;;;;;;;0.10;0.10;;;;;;;23.53;63.56;102219.75;5035077;28;20453;-65
2022/05/16 06:12:19;;;;;;;0.20;0.00;;;;;;;23.51;64.68;102236.38;5034828;28;20021;-65
2022/05/16 06:14:45;;;;;;;0.28;0.10;;;;;;;23.53;63.82;102223.34;5033709;28;20049;-65
2022/05/16 06:17:11;;;;;;;0.08;0.08;;;;;;;23.54;64.04;102214.09;5034818;28;20444;-65
2022/05/16 06:19:36;;;;;;;0.10;0.10;;;;;;;23.52;63.63;102227.13;5035766;28;20500;-65
2022/05/16 06:22:02;;;;;;;0.20;0.05;;;;;;;23.54;63.56;102230.56;5033402;28;20025;-65
2022/05/16 06:27:13;;;;;;;1.02;0.20;;;;;;;23.56;63.60;102236.72;5036227;28;20080;-65
2022/05/16 06:29:38;;;;;;;0.28;0.10;;;;;;;23.56;63.86;102223.00;5032108;28;20403;-65
2022/05/16 06:32:04;;;;;;;0.28;0.13;;;;;;;23.57;64.12;102224.75;5033134;28;20129;-65
2022/05/16 06:34:29;;;;;;;0.25;0.05;;;;;;;23.57;63.84;102230.25;5037544;28;20052;-64
2022/05/16 06:36:54;;;;;;;0.00;0.00;;;;;;;23.56;64.69;102231.25;5031580;28;20060;-65
2022/05/16 06:39:19;;;;;;;0.35;0.15;;;;;;;23.53;63.54;102234.34;5031972;28;20076;-65
2022/05/16 06:41:45;;;;;;;0.15;0.10;;;;;;;23.60;63.69;102232.63;5032978;28;20029;-66
2022/05/16 06:44:14;;;;;;;0.10;0.05;;;;;;;23.64;65.03;102242.22;5034325;28;20033;-65
2022/05/16 06:46:39;;;;;;;0.20;0.10;;;;;;;23.63;65.69;102245.16;5034240;28;20435;-64
2022/05/16 06:49:04;;;;;;;0.32;0.17;;;;;;;23.64;65.86;102239.50;5037215;28;20064;-65
2022/05/16 06:51:30;;;;;;;0.13;0.10;;;;;;;23.65;65.80;102238.44;5034131;28;20094;-64
2022/05/16 06:53:55;;;;;;;0.40;0.17;;;;;;;23.69;66.22;102223.38;5034051;28;20027;-65
2022/05/16 06:56:21;;;;;;;0.40;0.40;;;;;;;23.72;66.14;102221.31;5034065;28;20412;-65
2022/05/16 06:58:46;;;;;;;0.50;0.10;;;;;;;23.72;66.60;102232.28;5033846;28;20043;-65
2022/05/16 07:01:11;;;;;;;0.50;0.13;;;;;;;23.74;66.32;102222.84;5049325;28;20068;-66
2022/05/16 07:03:40;;;;;;;0.82;0.20;;;;;;;23.76;66.96;102233.66;5034091;28;20059;-65
2022/05/16 07:06:06;;;;;;;0.40;0.10;;;;;;;23.74;66.78;102235.72;5051024;28;20386;-64
2022/05/16 07:08:31;;;;;;;1.48;0.15;;;;;;;23.77;67.01;102240.84;5050580;28;20086;-66
2022/05/16 07:10:58;;;;;;;0.20;0.20;;;;;;;23.78;66.91;102231.59;5033880;28;20480;-65
2022/05/16 07:13:24;;;;;;;0.17;0.17;;;;;;;23.78;67.36;102242.56;5038303;28;20034;-63
2022/05/16 07:15:50;;;;;;;0.50;0.30;;;;;;;23.78;67.44;102237.06;5038861;28;20032;-65
2022/05/16 07:18:16;;;;;;;0.32;0.20;;;;;;;23.78;67.50;102237.06;5033615;28;20022;-65
2022/05/16 07:20:41;;;;;;;0.40;0.20;;;;;;;23.79;67.31;102247.03;5048904;28;20530;-65
2022/05/16 07:23:07;;;;;;;0.47;0.22;;;;;;;23.78;67.56;102242.56;5033646;28;20025;-66
2022/05/16 07:27:56;;;;;;;0.10;0.10;;;;;;;23.78;67.53;102242.56;5048615;28;20037;-66
2022/05/16 07:28:18;;;;;;;0.13;0.10;;;;;;;23.78;67.19;102242.56;5032961;28;20041;-65
2022/05/16 07:30:43;;;;;;;0.45;0.20;;;;;;;23.79;67.55;102249.78;5028422;28;20079;-65
2022/05/16 07:33:08;;;;;;;0.70;0.32;;;;;;;23.83;67.20;102245.63;5031382;28;20040;-66
2022/05/16 07:35:35;;;;;;;0.77;0.20;;;;;;;23.85;67.57;102249.06;5024458;28;20029;-65
2022/05/16 07:38:00;;;;;;;0.32;0.20;;;;;;;23.85;67.86;102243.56;5041132;28;20163;-66
2022/05/16 07:40:29;;;;;;;0.32;0.22;;;;;;;23.83;68.12;102240.16;5030476;28;20026;-65
2022/05/16 07:42:55;;;;;;;0.20;0.13;;;;;;;23.84;67.63;102248.22;5045389;28;20053;-65
2022/05/16 07:45:21;;;;;;;4.70;0.73;;;;;;;23.89;67.47;102244.97;5026331;28;20072;-65
2022/05/16 07:47:47;;;;;;;0.30;0.17;;;;;;;23.84;67.42;102253.69;5030492;28;20465;-65
2022/05/16 07:50:13;;;;;;;0.32;0.30;;;;;;;23.86;67.95;102259.06;5027619;28;20036;-66
2022/05/16 07:52:44;;;;;;;0.47;0.20;;;;;;;23.86;68.27;102261.78;5027905;28;20536;-65
2022/05/16 07:55:10;;;;;;;0.20;0.10;;;;;;;23.84;68.40;102261.09;5035397;28;20469;-65
2022/05/16 07:57:35;;;;;;;0.50;0.20;;;;;;;23.89;68.10;102266.94;5035296;28;20036;-67
2022/05/16 08:00:00;;;;;;;0.28;0.20;;;;;;;23.89;67.82;102255.94;5029248;28;20033;-67
2022/05/16 08:02:25;;;;;;;0.90;0.40;;;;;;;23.87;67.81;102258.00;5030781;28;20053;-65
2022/05/16 08:04:51;;;;;;;1.45;0.40;;;;;;;23.90;68.15;102260.41;5032815;28;20041;-65
2022/05/16 08:07:16;;;;;;;0.98;0.20;;;;;;;23.87;67.55;102261.63;5032768;28;20404;-66
2022/05/16 08:12:31;;;;;;;0.35;0.20;;;;;;;23.89;67.46;102228.47;5032683;28;20392;-67
2022/05/16 08:14:56;;;;;;;1.45;0.40;;;;;;;23.89;67.12;102264.19;5027688;28;20108;-66
2022/05/16 08:17:22;;;;;;;1.35;0.20;;;;;;;23.91;67.67;102264.88;5026569;28;20161;-65
2022/05/16 08:19:48;;;;;;;0.57;0.10;;;;;;;23.89;67.42;102266.94;5018960;28;20033;-66
2022/05/16 08:22:14;;;;;;;1.05;0.30;;;;;;;23.92;68.06;102261.09;5027098;28;20034;-65
2022/05/16 08:24:40;;;;;;;0.10;0.10;;;;;;;23.93;67.52;102268.28;5023009;28;20152;-65
2022/05/16 08:27:06;;;;;;;0.28;0.10;;;;;;;23.93;67.61;102268.28;5028858;28;20057;-65
2022/05/16 08:29:32;;;;;;;0.30;0.10;;;;;;;23.91;67.68;102265.72;5026679;28;20112;-66
2022/05/16 08:31:57;;;;;;;0.70;0.00;;;;;;;23.92;67.74;102267.44;5025119;28;20108;-65
2022/05/16 08:34:23;;;;;;;0.40;0.17;;;;;;;23.92;68.01;102266.59;5029030;28;20037;-66
2022/05/16 08:42:21;;;;;;;1.02;0.30;;;;;;;23.93;68.02;102257.31;5024868;28;20044;-66
2022/05/16 08:44:59;;;;;;;1.65;0.57;;;;;;;23.95;67.92;102274.47;5022561;28;20030;-65
2022/05/16 08:47:39;;;;;;;0.10;0.10;;;;;;;23.92;68.32;102266.59;5029992;28;20093;-66
2022/05/16 08:50:11;;;;;;;0.20;0.10;;;;;;;23.94;68.34;102270.88;5024012;28;20033;-65
2022/05/16 08:52:41;;;;;;;0.57;0.35;;;;;;;23.94;67.77;102272.75;5024582;28;20432;-66
2022/05/16 08:55:29;;;;;;;0.55;0.20;;;;;;;23.96;67.80;102267.94;5031242;28;20550;-65
2022/05/16 08:57:59;;;;;;;0.43;0.30;;;;;;;23.98;68.08;102272.22;5036246;28;20477;-66
2022/05/16 09:00:35;;;;;;;0.22;0.10;;;;;;;23.96;68.08;102268.78;5036187;28;20044;-66
2022/05/16 09:03:06;;;;;;;0.20;0.20;;;;;;;23.96;67.80;102276.19;5027971;28;20480;-66
2022/05/16 09:05:40;;;;;;;0.60;0.22;;;;;;;23.86;57.71;102272.78;5029471;28;20021;-66
2022/05/16 09:08:11;;;;;;;2.00;0.20;;;;;;;23.81;57.81;102264.19;5032503;28;20030;-66
2022/05/16 09:11:06;;;;;;;0.90;0.10;;;;;;;23.75;58.08;102270.38;5032445;28;20028;-63
2022/05/16 09:13:52;;;;;;;0.47;0.15;;;;;;;23.65;59.13;102267.81;5031000;28;20029;-66
2022/05/16 09:16:26;;;;;;;0.77;0.40;;;;;;;23.62;57.96;102265.41;5026285;28;20026;-67
2022/05/16 09:19:03;;;;;;;0.90;0.13;;;;;;;23.56;58.19;102266.06;5033296;28;20052;-67
2022/05/16 09:21:43;;;;;;;0.30;0.17;;;;;;;23.50;56.87;102262.09;5032964;28;20021;-67
2022/05/16 09:24:25;;;;;;;0.20;0.20;;;;;;;23.56;58.26;102271.56;5027431;28;20029;-66
2022/05/16 09:27:02;;;;;;;0.88;0.20;;;;;;;23.52;57.26;102275.69;5030889;28;20018;-66
2022/05/16 09:29:46;;;;;;;0.20;0.20;;;;;;;23.53;57.39;102272.78;5024350;28;20075;-66
2022/05/16 09:32:28;;;;;;;0.20;0.20;;;;;;;23.56;57.79;102266.94;5026973;28;20048;-66
2022/05/16 09:34:54;;;;;;;1.38;0.40;;;;;;;23.53;56.94;102272.78;5023480;28;20139;-66
2022/05/16 09:37:20;;;;;;;1.50;0.15;;;;;;;23.51;57.08;102274.78;5028317;28;20484;-67
2022/05/16 09:39:48;;;;;;;1.00;0.47;;;;;;;23.53;56.92;102272.78;5024196;28;20446;-66
2022/05/16 09:42:20;;;;;;;0.10;0.10;;;;;;;23.56;57.94;102261.44;5029311;28;20034;-67
2022/05/16 09:44:56;;;;;;;0.50;0.30;;;;;;;23.59;58.63;102266.63;5014987;28;20028;-69
2022/05/16 09:47:28;;;;;;;0.55;0.22;;;;;;;23.63;57.87;102262.47;5031319;28;20030;-68
2022/05/16 09:50:02;;;;;;;2.88;0.20;;;;;;;23.65;57.15;102271.41;5030227;28;20018;-64
2022/05/16 09:52:28;;;;;;;1.27;0.45;;;;;;;23.60;56.41;102267.47;5031421;28;20032;-65
2022/05/16 09:55:03;;;;;;;0.93;0.22;;;;;;;23.53;56.37;102269.16;5035874;28;20045;-65
2022/05/16 09:57:32;;;;;;;0.43;0.30;;;;;;;23.56;56.76;102275.16;5030546;28;20029;-70
2022/05/16 10:00:21;;;;;;;1.48;0.45;;;;;;;23.66;57.90;102272.25;5034226;28;20481;-67
2022/05/16 10:02:55;;;;;;;0.43;0.13;;;;;;;23.51;56.07;102269.31;5028634;28;20060;-68
2022/05/16 10:05:31;;;;;;;0.97;0.20;;;;;;;23.55;56.05;102276.19;5024852;28;20029;-68
2022/05/16 10:08:14;;;;;;;1.95;0.30;;;;;;;23.49;56.90;102274.13;5020095;28;20357;-67
2022/05/16 10:10:42;;;;;;;0.20;0.15;;;;;;;23.52;57.04;102276.53;5032699;28;20100;-67
2022/05/16 10:13:07;;;;;;;0.80;0.10;;;;;;;23.51;56.38;102283.03;5025578;28;20021;-68
2022/05/16 10:15:34;;;;;;;0.98;0.10;;;;;;;23.49;56.36;102276.00;5021963;28;20104;-67
2022/05/16 10:18:02;;;;;;;0.57;0.05;;;;;;;23.49;55.96;102273.25;5014376;28;20025;-67
2022/05/16 10:20:32;;;;;;;0.13;0.13;;;;;;;23.50;56.60;102278.56;5026489;28;20459;-67
2022/05/16 10:23:02;;;;;;;0.10;0.10;;;;;;;23.52;56.37;102279.28;5032700;28;20017;-68
2022/05/16 10:25:33;;;;;;;1.85;0.10;;;;;;;23.54;56.67;102277.22;5032971;28;20091;-67
2022/05/16 10:28:00;;;;;;;0.00;0.00;;;;;;;23.56;56.19;102277.91;5030691;28;20480;-67
2022/05/16 10:30:29;;;;;;;0.10;0.10;;;;;;;23.51;56.59;102266.56;5021633;28;20017;-68
2022/05/16 10:35:54;;;;;;;0.30;0.13;;;;;;;23.46;55.68;102260.75;5030825;28;20029;-67
2022/05/16 10:38:30;;;;;;;0.25;0.15;;;;;;;23.50;56.12;102264.84;5032294;28;20051;-67
2022/05/16 10:40:58;;;;;;;0.15;0.15;;;;;;;23.51;57.30;102269.31;5031046;28;20488;-67
2022/05/16 10:43:38;;;;;;;0.45;0.17;;;;;;;23.49;56.72;102267.78;5032563;28;20058;-66
2022/05/16 10:46:10;;;;;;;0.30;0.00;;;;;;;23.50;57.43;102273.09;5015409;28;20030;-67
2022/05/16 10:48:53;;;;;;;1.20;0.10;;;;;;;23.47;57.06;102262.44;5014570;28;20349;-67
2022/05/16 10:51:33;;;;;;;1.83;0.30;;;;;;;23.47;57.47;102270.69;5014267;28;20473;-67
2022/05/16 10:54:08;;;;;;;1.02;0.20;;;;;;;23.43;57.06;102258.34;5013673;28;20025;-67
2022/05/16 10:57:13;;;;;;;0.70;0.10;;;;;;;23.44;54.31;102257.31;5013575;28;20021;-68
2022/05/16 11:00:00;;;;;;;2.30;0.38;;;;;;;23.47;56.78;102256.97;5012071;28;20072;-67
2022/05/16 11:02:55;;;;;;;2.63;0.20;;;;;;;23.44;57.13;102256.44;5043157;28;20026;-67
2022/05/16 11:05:57;;;;;;;0.93;0.20;;;;;;;23.53;57.44;102250.81;5020158;28;20156;-70
2022/05/16 11:09:01;;;;;;;1.98;0.20;;;;;;;23.45;57.47;102256.28;5022244;28;20389;-70
2022/05/16 11:11:40;;;;;;;1.08;0.30;;;;;;;23.53;58.06;102250.81;5043950;28;20045;-67
2022/05/16 11:14:26;;;;;;;3.17;0.40;;;;;;;23.52;58.00;102250.97;5030171;28;20477;-68
2022/05/16 11:16:56;;;;;;;2.35;0.55;;;;;;;23.50;58.47;102251.13;5024276;28;20025;-68
2022/05/16 11:19:36;;;;;;;1.40;0.60;;;;;;;23.54;54.73;102258.00;5022169;28;20033;-66
2022/05/16 11:22:04;;;;;;;2.30;0.47;;;;;;;23.54;55.96;102252.53;5043331;28;20033;-68
2022/05/16 11:25:00;;;;;;;4.50;0.50;;;;;;;23.60;56.74;102257.34;5027200;28;20030;-69
2022/05/16 11:27:37;;;;;;;1.58;0.30;;;;;;;23.61;55.51;102248.06;5026022;28;20033;-68
2022/05/16 11:30:07;;;;;;;1.00;0.40;;;;;;;23.54;57.45;102246.19;5022876;28;20094;-66
2022/05/16 11:32:47;;;;;;;0.75;0.60;;;;;;;23.51;54.90;102251.97;5023901;28;20025;-66
2022/05/16 11:35:24;;;;;;;2.13;0.50;;;;;;;23.60;56.62;102257.34;5018989;28;20120;-68
2022/05/16 11:38:07;;;;;;;2.33;0.35;;;;;;;23.60;57.06;102245.50;5031731;28;20025;-64
2022/05/16 11:40:54;;;;;;;6.15;0.47;;;;;;;23.58;56.59;102242.94;5030317;28;20087;-65
2022/05/16 11:43:30;;;;;;;1.63;0.40;;;;;;;23.52;54.83;102243.59;5020719;28;20100;-67
2022/05/16 11:46:18;;;;;;;1.83;0.35;;;;;;;23.63;57.33;102243.25;5027755;28;20025;-69
2022/05/16 11:48:50;;;;;;;0.88;0.40;;;;;;;23.69;57.71;102245.34;5025269;28;20112;-68
2022/05/16 11:51:38;;;;;;;1.33;0.40;;;;;;;23.68;57.83;102238.13;5018405;28;20152;-68
2022/05/16 11:54:06;;;;;;;2.15;0.50;;;;;;;23.69;59.16;102200.56;5027825;28;20024;-69
2022/05/16 12:02:20;;;;;;;1.75;0.50;;;;;;;23.60;55.81;102235.38;5016881;28;20088;-68
2022/05/16 12:04:54;;;;;;;2.15;0.73;;;;;;;23.56;56.30;102234.00;5017398;28;20440;-68
2022/05/16 12:07:40;;;;;;;3.17;0.50;;;;;;;23.94;56.84;102234.28;5020250;28;20028;-70
2022/05/16 12:10:14;;;;;;;1.77;0.70;;;;;;;23.81;61.54;102231.22;5023546;28;20397;-72
2022/05/16 12:12:42;;;;;;;4.20;0.60;;;;;;;23.78;62.69;102226.09;5018387;28;20022;-70